📊 Raw Sensor Data
Showing records 33676 to 33700 of 84,793 total
| ID | Distance (ft) | Battery V | Battery A | Int Temp (°F) | Int Humid (%) | Ext Temp (°F) | Solar V | RSSI | SNR | Time Stamp |
|---|---|---|---|---|---|---|---|---|---|---|
| 51130 | 15.0 | 3.99 | 7 | 85 | 40 | 79 | 5.10 | -75 | 7 | 09/05/2025 12:00 PM |
| 51129 | 15.1 | 3.96 | 7 | 83 | 40 | 81 | 5.10 | -75 | 7 | 09/05/2025 11:45 AM |
| 51128 | 15.1 | 3.96 | 0 | 81 | 41 | 80 | 5.10 | -75 | 8 | 09/05/2025 11:30 AM |
| 51127 | 15.1 | 4.01 | 7 | 79 | 41 | 76 | 5.10 | -75 | 8 | 09/05/2025 11:15 AM |
| 51126 | 15.2 | 3.96 | 7 | 78 | 41 | 76 | 5.10 | -74 | 8 | 09/05/2025 11:00 AM |
| 51125 | 15.0 | 3.96 | 7 | 75 | 41 | 76 | 5.10 | -75 | 7 | 09/05/2025 10:45 AM |
| 51124 | 15.1 | 3.96 | 7 | 74 | 41 | 70 | 5.10 | -73 | 8 | 09/05/2025 10:30 AM |
| 51123 | 15.1 | 3.98 | 7 | 72 | 41 | 72 | 5.10 | -74 | 7 | 09/05/2025 10:15 AM |
| 51122 | 15.1 | 4.09 | 7 | 71 | 41 | 72 | 5.10 | -72 | 8 | 09/05/2025 10:00 AM |
| 51121 | 15.1 | 3.96 | 5 | 70 | 41 | 71 | 5.10 | -74 | 7 | 09/05/2025 09:45 AM |
| 51120 | 14.3 | 3.96 | 0 | 69 | 41 | 71 | 5.10 | -72 | 8 | 09/05/2025 09:30 AM |
| 51119 | 15.1 | 3.96 | 0 | 68 | 41 | 69 | 5.10 | -72 | 7 | 09/05/2025 09:15 AM |
| 51118 | 15.1 | 4.03 | 8 | 66 | 41 | 71 | 5.10 | -72 | 7 | 09/05/2025 09:00 AM |
| 51117 | 15.0 | 3.96 | 8 | 65 | 41 | 69 | 5.10 | -73 | 8 | 09/05/2025 08:45 AM |
| 51116 | 15.1 | 3.99 | 8 | 63 | 41 | 66 | 5.10 | -73 | 8 | 09/05/2025 08:30 AM |
| 51115 | 15.0 | 3.96 | 7 | 62 | 41 | 66 | 5.10 | -73 | 8 | 09/05/2025 08:15 AM |
| 51114 | 15.0 | 4.08 | 85 | 61 | 42 | 65 | 4.50 | -72 | 7 | 09/05/2025 08:00 AM |
| 51113 | 15.0 | 4.02 | 45 | 60 | 42 | 64 | 4.50 | -71 | 7 | 09/05/2025 07:45 AM |
| 51112 | 15.1 | 3.96 | 0 | 58 | 43 | 64 | 4.60 | -73 | 8 | 09/05/2025 07:30 AM |
| 51111 | 14.8 | 3.96 | 10 | 57 | 43 | 63 | 4.50 | -73 | 8 | 09/05/2025 07:15 AM |
| 51110 | 14.3 | 3.88 | 0 | 56 | 43 | 60 | 4.50 | -75 | 8 | 09/05/2025 07:00 AM |
| 51109 | 14.9 | 3.87 | -26 | 56 | 43 | 57 | 4.50 | -74 | 8 | 09/05/2025 06:45 AM |
| 51108 | 14.8 | 3.93 | -5 | 56 | 43 | 57 | 0.90 | -73 | 7 | 09/05/2025 06:30 AM |
| 51107 | 14.8 | 3.93 | -5 | 56 | 43 | 57 | 0.00 | -73 | 8 | 09/05/2025 06:15 AM |
| 51106 | 14.9 | 3.88 | -5 | 57 | 43 | 58 | 0.00 | -74 | 8 | 09/05/2025 06:00 AM |